Time;durP1;ratioP1;P1;durP2;ratioP2;P2;SDS_P1;SDS_P2;PMS_P1;PMS_P2;Temp;Humidity;BMP_temperature;BMP_pressure;BME280_temperature;BME280_humidity;BME280_pressure;Samples;Min_cycle;Max_cycle;Signal;HPM_P1;HPM_P2
2022/08/09 00:02:24;;;;;;;3.97;2.03;;;19.00;99.90;;;;;;5092748;28;20161;-46
2022/08/09 00:04:50;;;;;;;4.55;2.10;;;18.90;99.90;;;;;;5092456;28;20169;-44
2022/08/09 00:07:16;;;;;;;5.57;2.38;;;18.90;99.90;;;;;;5092255;28;20215;-44
2022/08/09 00:09:41;;;;;;;3.38;2.00;;;18.90;99.90;;;;;;5092405;28;20196;-44
2022/08/09 00:12:08;;;;;;;4.03;2.20;;;18.90;99.90;;;;;;5092443;28;20244;-45
2022/08/09 00:14:34;;;;;;;3.13;1.80;;;18.90;99.90;;;;;;5092315;28;20643;-43
2022/08/09 00:17:00;;;;;;;2.50;1.70;;;18.90;99.90;;;;;;5092383;28;20576;-45
2022/08/09 00:19:25;;;;;;;2.85;1.98;;;18.80;99.90;;;;;;5092647;28;20157;-45
2022/08/09 00:21:51;;;;;;;2.55;2.10;;;18.80;99.90;;;;;;5092227;28;20161;-44
2022/08/09 00:24:17;;;;;;;3.83;2.20;;;18.80;99.90;;;;;;5092286;28;20164;-44
2022/08/09 00:26:42;;;;;;;3.72;2.10;;;18.70;99.90;;;;;;5092039;28;20197;-44
2022/08/09 00:29:08;;;;;;;4.03;2.00;;;18.70;99.90;;;;;;5092174;28;20233;-45
2022/08/09 00:31:33;;;;;;;2.45;2.15;;;18.60;99.90;;;;;;5092065;28;20176;-43
2022/08/09 00:33:59;;;;;;;3.42;2.20;;;18.60;99.90;;;;;;5092214;28;20176;-44
2022/08/09 00:36:25;;;;;;;2.20;2.00;;;18.70;99.90;;;;;;5092446;28;20172;-44
2022/08/09 00:38:51;;;;;;;4.13;2.67;;;18.60;99.90;;;;;;5091917;28;20165;-44
2022/08/09 00:41:21;;;;;;;4.85;2.17;;;18.60;99.90;;;;;;5092027;28;20188;-45
2022/08/09 00:43:48;;;;;;;7.03;2.10;;;18.60;99.90;;;;;;5091793;28;20184;-45
2022/08/09 00:46:14;;;;;;;4.25;2.28;;;18.60;99.90;;;;;;5092011;28;20176;-49
2022/08/09 00:48:40;;;;;;;3.03;2.22;;;18.60;99.90;;;;;;5091785;28;20165;-49
2022/08/09 00:51:08;;;;;;;2.30;2.10;;;18.60;99.90;;;;;;5091888;28;20640;-47
2022/08/09 00:53:35;;;;;;;5.68;2.90;;;18.60;99.90;;;;;;5092126;28;20166;-47
2022/08/09 00:56:01;;;;;;;3.78;2.70;;;18.60;99.90;;;;;;5091202;28;20153;-47
2022/08/09 00:58:27;;;;;;;5.22;2.05;;;18.60;99.90;;;;;;5091731;28;20165;-44
2022/08/09 01:00:54;;;;;;;3.20;2.17;;;18.50;99.90;;;;;;5091969;28;20253;-45
2022/08/09 01:03:27;;;;;;;3.17;2.65;;;18.40;99.90;;;;;;5091814;28;20165;-46
2022/08/09 01:06:09;;;;;;;3.92;2.13;;;18.40;99.90;;;;;;5091701;28;20169;-50
2022/08/09 01:09:25;;;;;;;2.15;1.85;;;18.20;99.90;;;;;;5091693;28;20190;-53
2022/08/09 01:11:59;;;;;;;4.28;2.28;;;18.20;99.90;;;;;;5048355;28;20186;-50
2022/08/09 01:14:54;;;;;;;4.10;2.20;;;18.20;99.90;;;;;;5073706;28;20173;-50
2022/08/09 01:17:36;;;;;;;3.03;2.00;;;18.20;99.90;;;;;;5086418;28;20177;-49
2022/08/09 01:20:11;;;;;;;3.03;2.08;;;18.20;99.90;;;;;;5091375;28;20169;-51
2022/08/09 01:23:18;;;;;;;5.10;2.63;;;18.20;99.90;;;;;;5091279;28;20156;-50
2022/08/09 01:26:26;;;;;;;3.97;2.70;;;18.20;99.90;;;;;;5077939;28;20177;-51
2022/08/09 01:28:55;;;;;;;6.20;2.72;;;18.20;99.90;;;;;;5091659;28;20203;-48
2022/08/09 01:31:24;;;;;;;3.40;2.30;;;18.20;99.90;;;;;;5091232;28;20633;-54
2022/08/09 01:33:53;;;;;;;4.47;2.63;;;18.10;99.90;;;;;;5091308;28;20165;-52
2022/08/09 01:36:25;;;;;;;4.53;2.08;;;18.20;99.90;;;;;;5091225;28;20161;-48
2022/08/09 01:38:52;;;;;;;3.22;2.42;;;18.10;99.90;;;;;;5091259;28;20534;-50
2022/08/09 01:41:40;;;;;;;3.20;2.10;;;18.10;99.90;;;;;;5091311;28;20219;-47
2022/08/09 01:44:08;;;;;;;3.08;2.40;;;18.10;99.90;;;;;;5091246;28;20617;-50
2022/08/09 01:46:37;;;;;;;4.22;2.10;;;18.00;99.90;;;;;;5091008;28;20200;-47
2022/08/09 01:49:06;;;;;;;2.35;1.98;;;18.00;99.90;;;;;;5091126;28;20216;-48
2022/08/09 01:51:32;;;;;;;3.60;2.20;;;18.00;99.90;;;;;;5091113;28;20158;-50
2022/08/09 01:54:00;;;;;;;3.20;2.28;;;18.00;99.90;;;;;;5091112;28;20169;-51
2022/08/09 01:56:27;;;;;;;4.32;2.63;;;18.00;99.90;;;;;;5091317;28;20165;-49
2022/08/09 01:58:56;;;;;;;3.00;2.00;;;17.90;99.90;;;;;;5091574;28;20165;-52
2022/08/09 02:01:24;;;;;;;5.55;2.30;;;17.90;99.90;;;;;;5091331;28;20165;-50
2022/08/09 02:03:50;;;;;;;3.78;2.45;;;17.90;99.90;;;;;;5090987;28;20490;-53
2022/08/09 02:07:07;;;;;;;2.50;2.25;;;17.90;99.90;;;;;;5090884;28;20165;-52
2022/08/09 02:09:06;;;;;;;3.13;2.15;;;17.90;99.90;;;;;;5093078;28;20201;-50
2022/08/09 02:11:32;;;;;;;6.63;2.33;;;17.80;99.90;;;;;;5094708;28;20158;-45
2022/08/09 02:13:59;;;;;;;5.78;2.92;;;17.80;99.90;;;;;;5094427;28;20696;-44
2022/08/09 02:16:29;;;;;;;4.65;2.50;;;17.80;99.90;;;;;;5076799;28;20571;-45
2022/08/09 02:18:55;;;;;;;3.33;2.40;;;17.70;99.90;;;;;;5094884;28;20716;-43
2022/08/09 02:21:23;;;;;;;3.60;2.15;;;17.70;99.90;;;;;;5094640;28;20169;-45
2022/08/09 02:23:53;;;;;;;3.45;3.15;;;17.70;99.90;;;;;;5094659;28;20173;-44
2022/08/09 02:26:21;;;;;;;3.00;2.70;;;17.70;99.90;;;;;;5094391;28;20568;-46
2022/08/09 02:28:51;;;;;;;4.95;2.50;;;17.70;99.90;;;;;;5094442;28;20165;-44
2022/08/09 02:31:26;;;;;;;2.75;2.40;;;17.60;99.90;;;;;;5094807;28;20170;-49
2022/08/09 02:33:55;;;;;;;3.10;2.20;;;17.60;99.90;;;;;;5094721;28;20647;-44
2022/08/09 02:36:30;;;;;;;3.78;2.45;;;17.60;99.90;;;;;;5094325;28;20169;-45
2022/08/09 02:38:59;;;;;;;2.95;2.65;;;17.60;99.90;;;;;;5094563;28;20165;-43
2022/08/09 02:41:51;;;;;;;4.15;2.45;;;17.60;99.90;;;;;;5094557;28;20579;-43
2022/08/09 02:44:21;;;;;;;4.35;2.60;;;17.60;99.90;;;;;;5094116;28;20261;-43
2022/08/09 02:46:50;;;;;;;2.72;2.10;;;17.60;99.90;;;;;;5094024;28;20192;-43
2022/08/09 02:49:20;;;;;;;4.15;2.45;;;17.50;99.90;;;;;;5093963;28;20556;-44
2022/08/09 02:51:52;;;;;;;3.35;2.40;;;17.60;99.90;;;;;;5094050;28;20969;-44
2022/08/09 02:54:20;;;;;;;3.17;2.35;;;17.50;99.90;;;;;;5094007;28;20161;-45
2022/08/09 02:56:48;;;;;;;4.05;2.30;;;17.60;99.90;;;;;;5094009;28;20180;-56
2022/08/09 02:59:15;;;;;;;2.30;2.10;;;17.50;99.90;;;;;;5093872;28;20637;-56
2022/08/09 03:01:41;;;;;;;4.05;2.72;;;17.50;99.90;;;;;;5075613;28;20506;-56
2022/08/09 03:04:09;;;;;;;4.43;2.50;;;17.50;99.90;;;;;;5093847;28;20157;-57
2022/08/09 03:06:36;;;;;;;3.65;2.40;;;17.50;99.90;;;;;;5075519;28;20563;-56
2022/08/09 03:09:04;;;;;;;5.07;2.80;;;17.40;99.90;;;;;;5093743;28;20239;-57
2022/08/09 03:11:31;;;;;;;2.28;2.00;;;17.40;99.90;;;;;;5093665;28;20154;-56
2022/08/09 03:13:58;;;;;;;5.22;2.75;;;17.30;99.90;;;;;;5093314;28;20217;-50
2022/08/09 03:16:24;;;;;;;3.35;2.88;;;17.30;99.90;;;;;;5094202;28;20176;-55
2022/08/09 03:18:50;;;;;;;3.83;2.67;;;17.30;99.90;;;;;;5093113;28;20237;-56
2022/08/09 03:21:18;;;;;;;4.18;2.70;;;17.20;99.90;;;;;;5093478;28;20176;-55
2022/08/09 03:23:47;;;;;;;4.95;2.70;;;17.20;99.90;;;;;;5093361;28;20165;-55
2022/08/09 03:26:17;;;;;;;4.82;2.80;;;17.20;99.90;;;;;;5092917;28;20169;-53
2022/08/09 03:28:46;;;;;;;3.63;2.80;;;17.10;99.90;;;;;;5093271;28;20710;-54
2022/08/09 03:31:12;;;;;;;6.47;2.50;;;17.20;99.90;;;;;;5093289;28;20165;-55
2022/08/09 03:33:39;;;;;;;3.22;2.90;;;17.20;99.90;;;;;;5093209;28;20189;-45
2022/08/09 03:36:06;;;;;;;2.67;2.28;;;17.20;99.90;;;;;;5093111;28;20169;-47
2022/08/09 03:38:33;;;;;;;4.47;2.85;;;17.20;99.90;;;;;;5093411;28;20204;-47
2022/08/09 03:40:58;;;;;;;3.33;2.50;;;17.20;99.90;;;;;;5092934;28;20165;-46
2022/08/09 03:43:26;;;;;;;3.22;2.35;;;17.10;99.90;;;;;;5093107;28;20632;-55
2022/08/09 03:45:51;;;;;;;5.25;2.45;;;17.10;99.90;;;;;;5093093;28;20170;-52
2022/08/09 03:48:19;;;;;;;3.25;2.95;;;17.10;99.90;;;;;;5092706;28;20280;-51
2022/08/09 03:50:45;;;;;;;4.70;2.70;;;17.10;99.90;;;;;;5092664;28;20157;-54
2022/08/09 03:53:12;;;;;;;4.00;2.78;;;17.10;99.90;;;;;;5092718;28;20540;-55
2022/08/09 03:55:37;;;;;;;5.45;2.50;;;17.10;99.90;;;;;;5092726;28;20170;-47
2022/08/09 03:58:03;;;;;;;4.57;2.95;;;17.10;99.90;;;;;;5092662;28;20161;-47
2022/08/09 04:00:30;;;;;;;5.25;2.72;;;17.10;99.90;;;;;;5092707;28;20161;-45
2022/08/09 04:02:55;;;;;;;4.68;2.90;;;17.10;99.90;;;;;;5092891;28;20165;-47
2022/08/09 04:05:22;;;;;;;4.45;3.05;;;16.10;99.90;;;;;;5092940;28;20211;-46
2022/08/09 04:07:48;;;;;;;4.55;2.60;;;17.10;99.90;;;;;;5092428;28;20232;-47
2022/08/09 04:10:15;;;;;;;3.30;2.28;;;17.00;99.90;;;;;;5092673;28;20197;-50
2022/08/09 04:12:45;;;;;;;3.85;2.17;;;17.10;99.90;;;;;;5092148;28;20295;-56
2022/08/09 04:15:13;;;;;;;4.03;2.95;;;17.20;99.90;;;;;;5092374;28;20169;-55
2022/08/09 04:17:40;;;;;;;3.22;2.55;;;17.20;99.90;;;;;;5092392;28;20173;-53
2022/08/09 04:20:07;;;;;;;4.22;2.72;;;17.10;99.90;;;;;;5092230;28;20243;-49
2022/08/09 04:22:33;;;;;;;7.35;2.67;;;17.10;99.90;;;;;;5092747;28;20543;-49
2022/08/09 04:24:59;;;;;;;3.03;2.53;;;17.10;99.90;;;;;;5092531;28;20166;-50
2022/08/09 04:27:24;;;;;;;4.38;2.70;;;17.10;99.90;;;;;;5092446;28;20208;-54
2022/08/09 04:29:50;;;;;;;6.75;3.47;;;17.20;99.90;;;;;;5092206;28;20166;-47
2022/08/09 04:32:16;;;;;;;5.03;2.70;;;17.20;99.90;;;;;;5091371;28;20176;-48
2022/08/09 04:34:41;;;;;;;5.32;3.00;;;17.10;99.90;;;;;;5092226;28;20162;-47
2022/08/09 04:37:07;;;;;;;6.85;3.10;;;17.20;99.90;;;;;;5091993;28;20157;-45
2022/08/09 04:39:33;;;;;;;6.30;3.35;;;17.10;99.90;;;;;;5092005;28;20162;-46
2022/08/09 04:41:58;;;;;;;5.10;2.92;;;17.20;99.90;;;;;;5092062;28;20663;-43
2022/08/09 04:44:24;;;;;;;8.70;3.28;;;17.10;99.90;;;;;;5092059;28;20165;-47
2022/08/09 04:46:50;;;;;;;4.25;2.60;;;17.20;99.90;;;;;;5091800;28;20201;-53
2022/08/09 04:49:16;;;;;;;5.90;3.00;;;17.20;99.90;;;;;;5092073;28;20205;-48
2022/08/09 04:51:42;;;;;;;4.15;2.67;;;17.30;99.90;;;;;;5091724;28;20203;-49
2022/08/09 04:54:07;;;;;;;6.53;3.97;;;17.30;99.90;;;;;;5091745;28;20165;-45
2022/08/09 04:56:33;;;;;;;4.05;3.38;;;17.30;99.90;;;;;;5091806;28;20176;-49
2022/08/09 04:58:58;;;;;;;4.10;2.92;;;17.40;99.90;;;;;;5091658;28;20242;-51
2022/08/09 05:01:24;;;;;;;5.85;3.42;;;17.40;99.90;;;;;;5092244;28;20180;-49
2022/08/09 05:03:50;;;;;;;4.20;3.35;;;17.40;99.90;;;;;;5091875;28;20169;-47
2022/08/09 05:06:15;;;;;;;4.63;3.20;;;17.40;99.90;;;;;;5091554;28;20173;-49
2022/08/09 05:08:41;;;;;;;9.43;3.00;;;17.40;99.90;;;;;;5091597;28;20524;-50
2022/08/09 05:11:07;;;;;;;3.13;2.63;;;17.50;99.90;;;;;;5091431;28;20165;-44
2022/08/09 05:13:33;;;;;;;9.88;3.10;;;17.40;99.90;;;;;;5091248;28;20219;-44
2022/08/09 05:15:59;;;;;;;7.65;3.33;;;17.50;99.90;;;;;;5091559;28;20154;-44
2022/08/09 05:18:28;;;;;;;4.80;2.88;;;17.50;99.90;;;;;;5091800;28;20167;-44
2022/08/09 05:20:57;;;;;;;4.60;2.85;;;17.60;99.90;;;;;;5091938;28;20173;-44
2022/08/09 05:23:23;;;;;;;5.90;3.25;;;17.70;99.90;;;;;;5091996;28;20555;-45
2022/08/09 05:25:49;;;;;;;6.90;3.28;;;17.80;99.90;;;;;;5091248;28;20633;-44
2022/08/09 05:28:15;;;;;;;3.42;2.83;;;17.80;99.90;;;;;;5091194;28;20694;-46
2022/08/09 05:30:40;;;;;;;4.22;2.90;;;17.90;99.90;;;;;;5091372;28;20166;-49
2022/08/09 05:33:06;;;;;;;5.72;3.00;;;18.00;99.90;;;;;;5091617;28;20544;-47
2022/08/09 05:35:32;;;;;;;4.47;2.60;;;18.00;99.90;;;;;;5091169;28;20177;-45
2022/08/09 05:37:57;;;;;;;8.60;2.92;;;18.20;99.90;;;;;;5091298;28;20204;-44
2022/08/09 05:40:25;;;;;;;6.22;2.90;;;18.40;99.90;;;;;;5091846;28;20244;-44
2022/08/09 05:42:51;;;;;;;3.95;2.30;;;18.40;99.90;;;;;;5093786;28;20657;-43
2022/08/09 05:45:16;;;;;;;4.15;2.70;;;18.40;99.90;;;;;;5095388;28;20169;-44
2022/08/09 05:47:42;;;;;;;7.13;2.55;;;18.40;99.90;;;;;;5095240;28;20288;-44
2022/08/09 05:50:08;;;;;;;2.80;2.60;;;18.40;99.90;;;;;;5095145;28;20161;-45
2022/08/09 05:52:34;;;;;;;3.15;2.70;;;18.50;99.90;;;;;;5095511;28;20202;-45
2022/08/09 05:54:59;;;;;;;5.80;2.72;;;18.60;99.90;;;;;;5095163;28;20522;-44
2022/08/09 05:57:25;;;;;;;3.83;2.72;;;18.60;99.90;;;;;;5095392;28;20517;-45
2022/08/09 05:59:51;;;;;;;8.38;3.33;;;18.70;99.90;;;;;;5095344;28;20172;-44
2022/08/09 06:02:16;;;;;;;4.07;3.13;;;18.60;99.90;;;;;;5095053;28;20165;-44
2022/08/09 06:04:42;;;;;;;6.07;3.47;;;18.60;99.90;;;;;;5094852;28;20162;-48
2022/08/09 06:07:08;;;;;;;8.05;3.20;;;18.70;99.90;;;;;;5094715;28;20632;-47
2022/08/09 06:09:33;;;;;;;6.20;2.78;;;18.70;99.90;;;;;;5094949;28;20185;-49
2022/08/09 06:11:59;;;;;;;6.03;3.28;;;18.70;99.90;;;;;;5094415;28;20169;-49
2022/08/09 06:14:25;;;;;;;4.63;2.97;;;18.90;99.90;;;;;;5102470;28;20177;-44
2022/08/09 06:16:51;;;;;;;6.47;3.40;;;18.90;99.90;;;;;;5113615;28;20665;-47
2022/08/09 06:19:17;;;;;;;5.60;3.10;;;19.00;99.90;;;;;;5109120;28;20166;-45
2022/08/09 06:21:44;;;;;;;4.68;2.78;;;19.10;99.90;;;;;;5093761;28;20189;-47
2022/08/09 06:24:09;;;;;;;4.30;2.88;;;19.20;99.90;;;;;;5093930;28;20195;-46
2022/08/09 06:26:40;;;;;;;6.78;3.53;;;19.10;99.90;;;;;;5092503;28;20299;-44
2022/08/09 06:29:07;;;;;;;4.65;3.10;;;19.20;99.90;;;;;;5093918;28;20181;-45
2022/08/09 06:31:34;;;;;;;5.00;3.00;;;19.40;99.90;;;;;;5099310;28;20176;-50
2022/08/09 06:34:01;;;;;;;6.15;3.33;;;19.30;99.90;;;;;;5114130;28;20164;-42
2022/08/09 06:36:26;;;;;;;7.70;3.17;;;19.50;99.90;;;;;;5113961;28;20173;-44
2022/08/09 06:38:52;;;;;;;4.43;3.03;;;19.60;99.90;;;;;;5114198;28;20171;-50
2022/08/09 06:41:18;;;;;;;5.22;3.30;;;19.50;99.90;;;;;;5113701;28;20172;-52
2022/08/09 06:43:44;;;;;;;6.72;3.00;;;19.60;99.90;;;;;;5105965;28;20172;-47
2022/08/09 06:46:09;;;;;;;5.63;3.42;;;19.80;99.90;;;;;;5102367;28;20625;-48
2022/08/09 06:48:35;;;;;;;4.72;3.55;;;19.80;99.90;;;;;;5093294;28;20219;-43
2022/08/09 06:51:01;;;;;;;4.55;2.95;;;19.90;99.90;;;;;;5093361;28;20246;-46
2022/08/09 06:53:26;;;;;;;9.60;3.55;;;20.00;99.90;;;;;;5093049;28;20219;-44
2022/08/09 06:55:52;;;;;;;3.65;2.90;;;20.10;99.90;;;;;;5093584;28;20645;-47
2022/08/09 06:58:18;;;;;;;3.72;3.20;;;20.30;99.90;;;;;;5093197;28;20246;-45
2022/08/09 07:00:44;;;;;;;5.38;3.00;;;20.30;99.90;;;;;;5092045;28;20169;-49
2022/08/09 07:03:09;;;;;;;7.63;2.83;;;20.50;99.90;;;;;;5109478;28;20616;-53
2022/08/09 07:05:35;;;;;;;5.00;2.95;;;20.60;99.90;;;;;;5113343;28;20200;-53
2022/08/09 07:08:00;;;;;;;4.88;2.67;;;20.50;99.90;;;;;;5102382;28;20209;-53
2022/08/09 07:10:26;;;;;;;4.90;3.08;;;20.60;99.90;;;;;;5092690;28;20573;-50
2022/08/09 07:12:51;;;;;;;3.78;2.67;;;20.80;99.90;;;;;;5093274;28;20213;-43
2022/08/09 07:15:17;;;;;;;4.18;2.80;;;20.80;99.90;;;;;;5093029;28;20166;-44
2022/08/09 07:17:43;;;;;;;4.05;2.58;;;21.00;99.90;;;;;;5092946;28;20216;-51
2022/08/09 07:20:09;;;;;;;4.75;2.97;;;21.00;99.90;;;;;;5103125;28;20639;-47
2022/08/09 07:22:35;;;;;;;5.15;2.92;;;21.10;99.90;;;;;;5112576;28;20643;-50
2022/08/09 07:25:04;;;;;;;4.57;3.30;;;21.20;99.90;;;;;;5113158;28;20203;-47
2022/08/09 07:27:29;;;;;;;7.35;3.05;;;21.40;99.90;;;;;;5113280;28;20208;-47
2022/08/09 07:29:55;;;;;;;4.55;3.15;;;21.60;99.90;;;;;;5112684;28;20763;-45
2022/08/09 07:32:21;;;;;;;5.22;2.70;;;21.70;99.90;;;;;;5113144;28;20172;-53
2022/08/09 07:34:47;;;;;;;4.45;3.00;;;21.80;99.90;;;;;;5112784;28;20160;-44
2022/08/09 07:37:12;;;;;;;2.97;2.50;;;21.90;99.90;;;;;;5112847;28;20173;-44
2022/08/09 07:39:38;;;;;;;4.97;3.20;;;22.00;99.90;;;;;;5112715;28;20169;-44
2022/08/09 07:42:04;;;;;;;3.60;2.70;;;22.00;99.90;;;;;;5112534;28;20247;-45
2022/08/09 07:44:30;;;;;;;4.13;3.05;;;22.10;99.90;;;;;;5112712;28;20520;-46
2022/08/09 07:46:55;;;;;;;3.13;2.72;;;22.30;99.90;;;;;;5112631;28;20200;-43
2022/08/09 07:49:21;;;;;;;4.80;3.05;;;22.40;99.90;;;;;;5112775;28;20168;-43
2022/08/09 07:51:46;;;;;;;4.90;2.50;;;22.50;99.90;;;;;;5111931;28;20175;-45
2022/08/09 07:54:12;;;;;;;3.88;3.00;;;22.40;99.90;;;;;;5112799;28;20165;-46
2022/08/09 07:56:38;;;;;;;4.50;2.95;;;22.50;99.90;;;;;;5101962;28;20722;-43
2022/08/09 07:59:03;;;;;;;4.03;2.95;;;22.60;99.90;;;;;;5092104;28;20189;-47
2022/08/09 08:01:29;;;;;;;3.58;2.60;;;22.70;99.90;;;;;;5091625;28;20165;-46
2022/08/09 08:03:55;;;;;;;6.45;3.22;;;22.90;99.90;;;;;;5091743;28;20234;-44
2022/08/09 08:06:20;;;;;;;3.63;2.40;;;23.00;99.90;;;;;;5091005;28;20160;-45
2022/08/09 08:08:46;;;;;;;4.25;2.88;;;23.00;99.90;;;;;;5091183;28;20215;-46
2022/08/09 08:11:12;;;;;;;4.28;2.25;;;23.10;99.90;;;;;;5091064;28;20610;-45
2022/08/09 08:13:38;;;;;;;6.03;2.55;;;23.20;99.90;;;;;;5091427;28;20221;-46
2022/08/09 08:16:03;;;;;;;3.25;2.40;;;23.30;99.90;;;;;;5092333;28;20166;-48
2022/08/09 08:18:29;;;;;;;4.47;2.40;;;23.30;99.90;;;;;;5091344;28;20171;-47
2022/08/09 08:20:55;;;;;;;5.38;2.63;;;23.50;99.90;;;;;;5092269;28;20653;-47
2022/08/09 08:23:21;;;;;;;4.30;2.92;;;23.50;99.90;;;;;;5092411;28;20173;-50
2022/08/09 08:25:47;;;;;;;2.60;2.40;;;23.70;99.90;;;;;;5092340;28;20696;-51
2022/08/09 08:28:14;;;;;;;4.30;2.50;;;23.60;99.90;;;;;;5092354;28;20575;-51
2022/08/09 08:30:41;;;;;;;2.95;2.17;;;23.60;99.90;;;;;;5092384;28;20169;-53
2022/08/09 08:33:07;;;;;;;5.18;2.75;;;23.80;99.90;;;;;;5092189;28;20215;-49
2022/08/09 08:35:34;;;;;;;5.35;2.70;;;24.10;99.90;;;;;;5092341;28;20170;-47
2022/08/09 08:38:00;;;;;;;5.82;2.45;;;24.20;99.90;;;;;;5092299;28;20173;-53
2022/08/09 08:40:25;;;;;;;5.57;2.60;;;24.30;99.90;;;;;;5092027;28;20165;-53
2022/08/09 08:42:52;;;;;;;2.70;2.05;;;24.40;99.90;;;;;;5073993;28;20188;-54
2022/08/09 08:45:31;;;;;;;3.15;2.10;;;24.40;99.90;;;;;;5091817;28;20624;-54
2022/08/09 08:47:57;;;;;;;2.42;2.22;;;24.30;99.90;;;;;;5091783;28;20204;-53
2022/08/09 08:50:23;;;;;;;2.60;2.22;;;24.40;99.90;;;;;;5092120;28;20184;-49
2022/08/09 08:52:51;;;;;;;5.10;2.53;;;24.30;99.90;;;;;;5091714;28;20620;-51
2022/08/09 08:55:17;;;;;;;4.68;2.45;;;24.40;99.90;;;;;;5091568;28;20184;-48
2022/08/09 08:57:43;;;;;;;4.35;2.67;;;24.60;99.90;;;;;;5091532;28;20165;-53
2022/08/09 09:00:09;;;;;;;2.40;2.17;;;24.70;99.90;;;;;;5091849;28;20161;-48
2022/08/09 09:02:37;;;;;;;5.40;2.70;;;24.80;99.90;;;;;;5092086;28;20173;-54
2022/08/09 09:05:03;;;;;;;5.18;2.50;;;24.90;99.90;;;;;;5092128;28;20688;-50
2022/08/09 09:07:31;;;;;;;2.50;2.28;;;25.00;99.90;;;;;;5091707;28;20279;-53
2022/08/09 09:09:57;;;;;;;3.00;2.60;;;25.10;99.90;;;;;;5091882;28;20646;-51
2022/08/09 09:12:28;;;;;;;6.93;2.50;;;25.00;99.90;;;;;;5092002;28;20291;-50
2022/08/09 09:14:58;;;;;;;4.50;2.78;;;25.20;99.90;;;;;;5096862;28;20651;-44
2022/08/09 09:17:23;;;;;;;3.08;2.50;;;25.30;99.90;;;;;;5093663;28;20269;-53
2022/08/09 09:19:51;;;;;;;2.60;2.25;;;25.20;99.90;;;;;;5092097;28;20630;-53
2022/08/09 09:22:18;;;;;;;3.58;2.30;;;25.40;99.90;;;;;;5091750;28;20248;-54
2022/08/09 09:24:47;;;;;;;6.03;2.25;;;25.50;99.90;;;;;;5092004;28;20172;-48
2022/08/09 09:27:19;;;;;;;3.67;2.20;;;25.50;99.90;;;;;;5091846;28;20196;-50
2022/08/09 09:29:45;;;;;;;2.55;2.22;;;25.60;99.90;;;;;;5091964;28;20164;-48
2022/08/09 09:32:11;;;;;;;2.72;2.28;;;25.80;99.90;;;;;;5091746;28;20165;-52
2022/08/09 09:34:37;;;;;;;2.65;2.45;;;25.70;99.90;;;;;;5091740;28;20236;-49
2022/08/09 09:37:04;;;;;;;2.92;2.40;;;25.60;99.90;;;;;;5091753;28;20169;-51
2022/08/09 09:39:31;;;;;;;2.45;2.25;;;25.80;99.90;;;;;;5091450;28;20636;-47
2022/08/09 09:41:58;;;;;;;2.75;2.35;;;26.00;99.90;;;;;;5091792;28;20169;-47
2022/08/09 09:44:32;;;;;;;4.53;2.15;;;25.90;99.90;;;;;;5091601;28;20180;-49
2022/08/09 09:47:06;;;;;;;2.78;2.20;;;25.90;99.90;;;;;;5073622;28;20196;-51
2022/08/09 09:49:32;;;;;;;3.90;2.30;;;26.10;99.90;;;;;;5091583;28;20171;-50
2022/08/09 09:52:03;;;;;;;2.80;2.60;;;26.20;99.90;;;;;;5091588;28;20157;-53
2022/08/09 09:54:36;;;;;;;3.78;2.60;;;26.20;99.90;;;;;;5091494;28;20527;-52
2022/08/09 09:57:15;;;;;;;3.67;2.88;;;26.20;99.90;;;;;;5091550;28;20206;-52
2022/08/09 09:59:41;;;;;;;3.78;2.40;;;26.30;99.90;;;;;;5091483;28;20189;-53
2022/08/09 10:02:09;;;;;;;6.45;2.85;;;26.30;99.90;;;;;;5091689;28;20247;-51
2022/08/09 10:04:34;;;;;;;3.25;2.50;;;26.40;99.90;;;;;;5091443;28;20221;-47
2022/08/09 10:07:00;;;;;;;3.38;2.67;;;26.50;99.90;;;;;;5091331;28;20238;-47
2022/08/09 10:09:26;;;;;;;3.03;2.40;;;26.60;99.90;;;;;;5091321;28;20173;-51
2022/08/09 10:12:00;;;;;;;4.05;2.40;;;26.60;99.90;;;;;;5091459;28;20157;-47
2022/08/09 10:14:27;;;;;;;2.80;2.28;;;26.70;99.90;;;;;;5091481;28;20251;-49
2022/08/09 10:16:53;;;;;;;2.67;2.47;;;26.60;99.90;;;;;;5091871;28;20595;-54
2022/08/09 10:19:19;;;;;;;3.35;2.53;;;26.60;99.90;;;;;;5090298;28;20173;-51
2022/08/09 10:21:49;;;;;;;2.55;2.35;;;26.80;99.90;;;;;;5091563;28;20169;-44
2022/08/09 10:24:18;;;;;;;3.28;2.70;;;26.80;99.90;;;;;;5091563;28;20180;-52
2022/08/09 10:26:47;;;;;;;3.28;2.13;;;26.90;99.90;;;;;;5091366;28;20169;-49
2022/08/09 10:29:13;;;;;;;2.53;2.33;;;26.80;99.90;;;;;;5092382;28;20165;-53
2022/08/09 10:31:39;;;;;;;4.00;2.58;;;27.10;99.90;;;;;;5094959;28;20165;-52
2022/08/09 10:34:06;;;;;;;3.10;2.45;;;27.10;99.90;;;;;;5095020;28;20173;-50
2022/08/09 10:36:32;;;;;;;3.78;2.28;;;27.10;99.90;;;;;;5094818;28;20164;-50
2022/08/09 10:38:57;;;;;;;6.20;2.20;;;27.10;99.90;;;;;;5094742;28;20169;-51
2022/08/09 10:41:24;;;;;;;2.53;2.33;;;27.10;99.90;;;;;;5094906;28;20192;-43
2022/08/09 10:43:50;;;;;;;4.38;2.33;;;27.40;99.90;;;;;;5094985;28;20173;-49
2022/08/09 10:46:37;;;;;;;5.53;2.60;;;27.30;99.90;;;;;;5094728;28;20169;-49
2022/08/09 10:49:22;;;;;;;2.72;2.30;;;27.60;99.90;;;;;;5094485;28;20670;-51
2022/08/09 10:52:24;;;;;;;4.35;2.50;;;27.60;99.90;;;;;;5094815;28;20165;-53
2022/08/09 10:54:52;;;;;;;5.60;2.58;;;27.60;99.90;;;;;;5094437;28;20164;-51
2022/08/09 10:57:17;;;;;;;4.47;2.60;;;27.20;99.90;;;;;;5094246;28;20164;-51
2022/08/09 10:59:44;;;;;;;2.90;2.20;;;27.30;99.90;;;;;;5094327;28;20650;-49
2022/08/09 11:02:35;;;;;;;4.38;2.70;;;27.20;99.90;;;;;;5076067;28;20176;-49
2022/08/09 11:05:15;;;;;;;2.53;2.30;;;27.10;99.90;;;;;;5094261;28;20640;-53
2022/08/09 11:07:40;;;;;;;2.90;2.60;;;27.30;99.90;;;;;;5094029;28;20200;-46
2022/08/09 11:10:06;;;;;;;3.95;2.47;;;27.30;99.90;;;;;;5094232;28;20218;-46
2022/08/09 11:12:32;;;;;;;4.22;2.30;;;27.60;99.90;;;;;;5094029;28;20216;-47
2022/08/09 11:15:19;;;;;;;4.93;2.45;;;27.70;99.90;;;;;;5094051;28;20173;-44
2022/08/09 11:17:47;;;;;;;4.63;2.35;;;27.80;99.90;;;;;;5093818;28;20235;-44
2022/08/09 11:20:14;;;;;;;4.55;2.25;;;27.80;99.90;;;;;;5093945;28;20235;-51
2022/08/09 11:22:39;;;;;;;7.32;3.03;;;27.70;99.90;;;;;;5094116;28;20210;-50
2022/08/09 11:25:16;;;;;;;6.43;2.28;;;27.90;99.90;;;;;;5094180;28;20165;-52
2022/08/09 11:27:49;;;;;;;7.57;3.10;;;28.10;99.90;;;;;;5093699;28;20203;-46
2022/08/09 11:30:32;;;;;;;3.47;2.33;;;28.00;99.90;;;;;;5093670;28;20161;-53
2022/08/09 11:33:15;;;;;;;2.65;2.35;;;28.10;99.50;;;;;;5093520;28;20616;-50
2022/08/09 11:35:55;;;;;;;7.57;2.30;;;28.20;99.70;;;;;;5093618;28;20204;-46
2022/08/09 11:38:23;;;;;;;3.10;2.38;;;28.00;98.80;;;;;;5094057;28;20595;-50
2022/08/09 11:40:51;;;;;;;2.75;2.20;;;28.20;98.30;;;;;;5093601;28;20291;-54
2022/08/09 11:43:47;;;;;;;3.17;2.35;;;28.30;97.90;;;;;;5093708;28;20694;-53
2022/08/09 11:46:13;;;;;;;4.15;2.40;;;28.20;96.50;;;;;;5093768;28;20887;-52
2022/08/09 11:49:06;;;;;;;4.82;2.25;;;28.20;96.60;;;;;;5093214;28;20230;-46
2022/08/09 11:52:01;;;;;;;3.05;2.38;;;28.10;95.70;;;;;;5090079;28;20181;-51
2022/08/09 11:54:27;;;;;;;4.45;2.20;;;28.10;97.50;;;;;;5093482;28;20176;-50
2022/08/09 11:56:52;;;;;;;3.28;2.33;;;28.50;98.40;;;;;;5093614;28;20161;-53
2022/08/09 11:59:28;;;;;;;3.05;2.38;;;28.50;96.30;;;;;;5093587;28;20191;-53
2022/08/09 12:01:53;;;;;;;5.60;3.45;;;28.50;96.00;;;;;;5093128;28;20162;-52
2022/08/09 12:04:19;;;;;;;2.88;2.03;;;28.60;95.50;;;;;;5093607;28;20168;-50
2022/08/09 12:06:54;;;;;;;2.60;2.30;;;28.80;94.40;;;;;;5093212;28;20187;-49
2022/08/09 12:09:29;;;;;;;2.50;2.30;;;28.90;93.40;;;;;;5093485;28;20180;-45
2022/08/09 12:12:08;;;;;;;4.63;2.67;;;28.90;94.40;;;;;;5092629;28;20211;-47
2022/08/09 12:14:36;;;;;;;3.42;2.40;;;29.00;94.00;;;;;;5093153;28;20193;-50
2022/08/09 12:17:06;;;;;;;10.57;2.28;;;28.90;92.80;;;;;;5093089;28;20165;-55
2022/08/09 12:19:31;;;;;;;2.80;2.13;;;28.90;94.30;;;;;;5091498;28;20164;-51
2022/08/09 12:22:02;;;;;;;3.03;2.20;;;28.90;93.80;;;;;;5092975;28;20313;-51
2022/08/09 12:24:28;;;;;;;2.90;2.50;;;28.80;93.90;;;;;;5093037;28;20196;-54
2022/08/09 12:26:55;;;;;;;5.50;2.80;;;29.00;93.90;;;;;;5092778;28;20618;-51
2022/08/09 12:29:23;;;;;;;4.15;2.15;;;29.00;93.40;;;;;;5093178;28;20272;-50
2022/08/09 12:31:58;;;;;;;2.67;2.10;;;29.10;93.50;;;;;;5092710;28;20248;-54
2022/08/09 12:34:36;;;;;;;2.67;2.00;;;29.10;92.80;;;;;;5092514;28;20165;-54
2022/08/09 12:37:02;;;;;;;3.75;2.03;;;28.80;92.00;;;;;;5092423;28;20651;-51
2022/08/09 12:39:28;;;;;;;6.05;2.25;;;29.20;92.90;;;;;;5092641;28;20184;-53
2022/08/09 12:42:03;;;;;;;4.43;2.30;;;29.50;91.80;;;;;;5092418;28;20192;-48
2022/08/09 12:44:29;;;;;;;2.72;1.95;;;29.30;91.60;;;;;;5092350;28;20497;-54
2022/08/09 12:46:55;;;;;;;5.25;2.55;;;29.20;91.80;;;;;;5092318;28;20234;-54
2022/08/09 12:49:22;;;;;;;3.05;2.10;;;29.50;92.70;;;;;;5092594;28;20153;-51
2022/08/09 12:51:55;;;;;;;2.20;1.90;;;29.40;92.00;;;;;;5092110;28;20226;-54
2022/08/09 12:54:21;;;;;;;6.07;2.35;;;29.50;91.20;;;;;;5092638;28;20213;-55
2022/08/09 12:56:48;;;;;;;5.70;2.33;;;29.50;91.30;;;;;;5092183;28;20558;-55